createdAt,value
2018-12-01T00:00:24.359Z,-3.87
2018-12-01T00:02:53.284Z,-3.85
2018-12-01T00:05:22.132Z,-3.82
2018-12-01T00:07:51.386Z,-3.85
2018-12-01T00:10:20.284Z,-3.84
2018-12-01T00:12:49.191Z,-3.89
2018-12-01T00:15:20.283Z,-4.03
2018-12-01T00:17:49.087Z,-3.97
2018-12-01T00:20:20.181Z,-3.95
2018-12-01T00:22:49.411Z,-4.01
2018-12-01T00:25:18.269Z,-4.01
2018-12-01T00:27:47.056Z,-4.03
2018-12-01T00:30:17.028Z,-3.99
2018-12-01T00:32:46.995Z,-3.89
2018-12-01T00:35:16.294Z,-3.82
2018-12-01T00:37:45.154Z,-3.81
2018-12-01T00:40:18.272Z,-3.82
2018-12-01T00:42:47.197Z,-3.76
2018-12-01T00:45:17.300Z,-3.76
2018-12-01T00:47:47.303Z,-3.79
2018-12-01T00:50:17.140Z,-3.76
2018-12-01T00:52:46.711Z,-3.78
2018-12-01T00:55:17.665Z,-3.74
2018-12-01T00:57:46.558Z,-3.84
2018-12-01T01:00:21.134Z,-3.86
2018-12-01T01:02:52.128Z,-3.78
2018-12-01T01:05:22.135Z,-3.72
2018-12-01T01:07:51.405Z,-3.71
2018-12-01T01:10:21.172Z,-3.69
2018-12-01T01:12:50.345Z,-3.56
2018-12-01T01:15:19.579Z,-3.53
2018-12-01T01:17:48.415Z,-3.48
2018-12-01T01:20:18.291Z,-3.49
2018-12-01T01:22:47.417Z,-3.56
2018-12-01T01:25:16.624Z,-3.61
2018-12-01T01:27:46.177Z,-3.55
2018-12-01T01:30:21.062Z,-3.46
2018-12-01T01:33:54.681Z,-3.51
2018-12-01T01:36:23.495Z,-3.45
2018-12-01T01:38:52.276Z,-3.37
2018-12-01T01:41:21.040Z,-3.39
2018-12-01T01:43:49.854Z,-3.43
2018-12-01T01:46:18.698Z,-3.23
2018-12-01T01:48:48.020Z,-3.20
2018-12-01T01:51:16.763Z,-3.23
2018-12-01T01:53:45.543Z,-3.20
2018-12-01T01:56:14.266Z,-3.17
2018-12-01T01:58:43.031Z,-3.11
2018-12-01T02:01:11.833Z,-3.11
2018-12-01T02:03:40.721Z,-3.09
2018-12-01T02:06:09.673Z,-3.17
2018-12-01T02:08:38.492Z,-3.21
2018-12-01T02:11:07.559Z,-3.16
2018-12-01T02:13:36.515Z,-3.09
2018-12-01T02:16:05.733Z,-3.10
2018-12-01T02:18:34.538Z,-3.11
2018-12-01T02:21:03.405Z,-3.13
2018-12-01T02:23:32.186Z,-3.03
2018-12-01T02:26:01.033Z,-3.05
2018-12-01T02:28:29.927Z,-3.02
2018-12-01T02:30:58.743Z,-2.94
2018-12-01T02:33:27.528Z,-3.08
2018-12-01T02:35:56.373Z,-3.04
2018-12-01T02:38:25.239Z,-2.96
2018-12-01T02:40:54.019Z,-2.95
2018-12-01T02:43:22.908Z,-2.97
2018-12-01T02:46:02.615Z,-2.94
2018-12-01T02:48:31.391Z,-2.92
2018-12-01T02:51:00.187Z,-3.04
2018-12-01T02:53:29.003Z,-2.98
2018-12-01T02:55:57.767Z,-2.99
2018-12-01T02:58:26.655Z,-3.01
2018-12-01T03:00:55.494Z,-3.07
2018-12-01T03:03:24.312Z,-3.07
2018-12-01T03:05:53.117Z,-3.16
2018-12-01T03:08:21.922Z,-3.11
2018-12-01T03:10:50.750Z,-3.12
2018-12-01T03:13:19.584Z,-3.06
2018-12-01T03:15:48.521Z,-3.04
2018-12-01T03:18:17.378Z,-3.10
2018-12-01T03:20:53.164Z,-3.09
2018-12-01T03:23:22.204Z,-3.10
2018-12-01T03:25:51.009Z,-3.06
2018-12-01T03:28:19.811Z,-3.09
2018-12-01T03:30:48.645Z,-3.11
2018-12-01T03:33:17.508Z,-3.09
2018-12-01T03:35:46.427Z,-3.10
2018-12-01T03:38:15.186Z,-3.16
2018-12-01T03:40:48.951Z,-3.20
2018-12-01T03:43:17.912Z,-3.20
2018-12-01T03:45:46.945Z,-3.16
2018-12-01T03:48:15.736Z,-3.12
2018-12-01T03:50:44.564Z,-3.18
2018-12-01T03:53:13.631Z,-3.21
2018-12-01T03:55:42.404Z,-3.20
2018-12-01T03:58:11.263Z,-3.12
2018-12-01T04:00:40.143Z,-3.11
2018-12-01T04:03:09.061Z,-3.14
2018-12-01T04:05:37.924Z,-3.11
2018-12-01T04:08:06.805Z,-3.16
2018-12-01T04:10:35.590Z,-3.22
2018-12-01T04:13:04.447Z,-3.29
2018-12-01T04:15:42.461Z,-3.36
2018-12-01T04:18:11.435Z,-3.35
2018-12-01T04:20:40.186Z,-3.23
2018-12-01T04:23:08.995Z,-3.25
2018-12-01T04:25:37.814Z,-3.29
2018-12-01T04:28:06.601Z,-3.26
2018-12-01T04:30:35.522Z,-3.24
2018-12-01T04:33:04.338Z,-3.35
2018-12-01T04:35:33.131Z,-3.36
2018-12-01T04:38:02.026Z,-3.39
2018-12-01T04:40:30.825Z,-3.50
2018-12-01T04:42:59.661Z,-3.63
2018-12-01T04:45:28.459Z,-3.59
2018-12-01T04:47:57.294Z,-3.53
2018-12-01T04:50:26.153Z,-3.53
2018-12-01T04:52:54.916Z,-3.48
2018-12-01T04:55:23.746Z,-3.43
2018-12-01T04:57:52.562Z,-3.34
2018-12-01T05:00:22.260Z,-3.33
2018-12-01T05:02:51.045Z,-3.44
2018-12-01T05:05:22.951Z,-3.43
2018-12-01T05:07:52.351Z,-3.45
2018-12-01T05:10:22.270Z,-3.56
2018-12-01T05:12:51.093Z,-3.60
2018-12-01T05:15:20.300Z,-3.52
2018-12-01T05:17:49.238Z,-3.55
2018-12-01T05:20:22.784Z,-3.63
2018-12-01T05:22:53.092Z,-3.71
2018-12-01T05:25:21.964Z,-3.74
2018-12-01T05:27:51.344Z,-3.80
2018-12-01T05:30:20.141Z,-3.86
2018-12-01T05:32:48.910Z,-3.84
2018-12-01T05:35:22.186Z,-3.84
2018-12-01T05:37:51.003Z,-3.84
2018-12-01T05:40:19.893Z,-3.91
2018-12-01T05:42:48.607Z,-3.93
2018-12-01T05:45:19.241Z,-3.93
2018-12-01T05:47:48.165Z,-3.99
2018-12-01T05:50:23.325Z,-4.02
2018-12-01T05:52:52.908Z,-3.96
2018-12-01T05:55:21.868Z,-3.90
2018-12-01T05:57:51.409Z,-3.95
2018-12-01T06:00:20.526Z,-4.00
2018-12-01T06:02:49.357Z,-4.00
2018-12-01T06:05:18.140Z,-4.02
2018-12-01T06:07:47.080Z,-4.00
2018-12-01T06:10:17.423Z,-4.00
2018-12-01T06:12:46.683Z,-3.97
2018-12-01T06:15:16.425Z,-3.90
2018-12-01T06:17:45.390Z,-3.92
2018-12-01T06:20:15.599Z,-3.95
2018-12-01T06:22:44.349Z,-3.98
2018-12-01T06:25:14.467Z,-4.06
2018-12-01T06:27:43.362Z,-4.12
2018-12-01T06:30:14.434Z,-4.01
2018-12-01T06:32:44.325Z,-3.94
2018-12-01T06:35:13.211Z,-3.90
2018-12-01T06:37:42.146Z,-3.74
2018-12-01T06:40:18.274Z,-3.67
2018-12-01T06:42:47.463Z,-3.58
2018-12-01T06:45:16.986Z,-3.54
2018-12-01T06:47:45.836Z,-3.58
2018-12-01T06:50:23.228Z,-3.45
2018-12-01T06:52:53.276Z,-3.36
2018-12-01T06:55:23.149Z,-3.27
2018-12-01T06:57:51.941Z,-3.16
2018-12-01T07:00:25.053Z,-3.12
2018-12-01T07:02:55.074Z,-3.05
2018-12-01T07:05:23.866Z,-2.97
2018-12-01T07:07:52.686Z,-2.79
2018-12-01T07:10:22.460Z,-2.68
2018-12-01T07:12:54.438Z,-2.58
2018-12-01T07:15:29.713Z,-2.62
2018-12-01T07:17:58.620Z,-2.60
2018-12-01T07:20:27.401Z,-2.61
2018-12-01T07:22:56.600Z,-2.63
2018-12-01T07:25:25.487Z,-2.54
2018-12-01T07:27:54.378Z,-2.49
2018-12-01T07:30:23.223Z,-2.41
2018-12-01T07:32:51.975Z,-2.28
2018-12-01T07:35:20.729Z,-2.26
2018-12-01T07:37:49.682Z,-2.16
2018-12-01T07:40:18.913Z,-2.05
2018-12-01T07:42:47.707Z,-1.93
2018-12-01T07:45:17.018Z,-1.87
2018-12-01T07:47:46.017Z,-1.79
2018-12-01T07:50:16.662Z,-1.64
2018-12-01T07:52:51.180Z,-1.54
2018-12-01T07:55:20.526Z,-1.43
2018-12-01T07:57:49.398Z,-1.41
2018-12-01T08:00:18.340Z,-1.37
2018-12-01T08:02:49.204Z,-1.25
2018-12-01T08:05:17.973Z,-1.25
2018-12-01T08:07:46.759Z,-1.27
2018-12-01T08:10:16.378Z,-1.19
2018-12-01T08:12:45.119Z,-1.12
2018-12-01T08:15:15.040Z,-1.01
2018-12-01T08:17:44.013Z,-1.04
2018-12-01T08:20:14.665Z,-1.20
2018-12-01T08:22:43.457Z,-1.04
2018-12-01T08:25:17.343Z,-1.08
2018-12-01T08:27:48.267Z,-1.11
2018-12-01T08:30:18.588Z,-1.43
2018-12-01T08:32:47.394Z,-1.50
2018-12-01T08:35:16.300Z,-1.40
2018-12-01T08:37:45.169Z,-1.32
2018-12-01T08:40:15.449Z,-1.39
2018-12-01T08:42:44.277Z,-1.32
2018-12-01T08:45:13.124Z,-1.24
2018-12-01T08:47:42.262Z,-1.05
2018-12-01T08:50:13.190Z,-0.90
2018-12-01T08:52:41.967Z,-0.84
2018-12-01T08:55:12.245Z,-0.78
2018-12-01T08:57:41.211Z,-0.59
2018-12-01T09:00:15.990Z,-0.55
2018-12-01T09:02:45.647Z,-0.54
2018-12-01T09:05:14.513Z,-0.41
2018-12-01T09:07:43.345Z,-0.37
2018-12-01T09:10:12.236Z,-0.20
2018-12-01T09:12:41.148Z,-0.17
2018-12-01T09:15:11.241Z,-0.18
2018-12-01T09:17:40.440Z,-0.25
2018-12-01T09:20:11.868Z,-0.28
2018-12-01T09:22:43.860Z,-0.16
2018-12-01T09:25:14.731Z,-0.08
2018-12-01T09:27:43.507Z,-0.02
2018-12-01T09:30:16.930Z,0.04
2018-12-01T09:32:45.687Z,0.17
2018-12-01T09:35:21.058Z,0.34
2018-12-01T09:37:49.894Z,0.44
2018-12-01T09:40:19.957Z,0.53
2018-12-01T09:42:48.931Z,0.61
2018-12-01T09:45:19.319Z,0.63
2018-12-01T09:47:49.975Z,0.61
2018-12-01T09:50:18.952Z,0.63
2018-12-01T09:52:50.907Z,0.66
2018-12-01T09:55:21.859Z,0.81
2018-12-01T09:57:50.681Z,0.88
2018-12-01T10:00:29.251Z,1.04
2018-12-01T10:02:58.469Z,1.11
2018-12-01T10:05:27.623Z,1.22
2018-12-01T10:07:56.427Z,1.24
2018-12-01T10:10:25.320Z,1.29
2018-12-01T10:12:56.183Z,1.44
2018-12-01T10:15:27.109Z,1.46
2018-12-01T10:17:55.987Z,1.47
2018-12-01T10:20:27.295Z,1.50
2018-12-01T10:22:56.170Z,1.59
2018-12-01T10:25:25.399Z,1.55
2018-12-01T10:27:54.725Z,1.43
2018-12-01T10:30:23.990Z,1.52
2018-12-01T10:32:53.217Z,1.50
2018-12-01T10:35:23.080Z,1.46
2018-12-01T10:37:54.450Z,1.38
2018-12-01T10:40:23.287Z,1.40
2018-12-01T10:42:52.197Z,1.32
2018-12-01T10:45:21.460Z,1.26
2018-12-01T10:47:50.689Z,1.35
2018-12-01T10:50:21.044Z,1.41
2018-12-01T10:52:51.033Z,1.44
2018-12-01T10:55:29.607Z,1.39
2018-12-01T10:58:02.621Z,1.42
2018-12-01T11:00:37.053Z,1.52
2018-12-01T11:03:11.260Z,1.59
2018-12-01T11:05:40.031Z,1.61
2018-12-01T11:08:09.912Z,1.63
2018-12-01T11:10:38.743Z,1.74
2018-12-01T11:13:07.587Z,1.76
2018-12-01T11:15:36.423Z,1.80
2018-12-01T11:18:05.596Z,1.76
2018-12-01T11:20:34.459Z,1.73
2018-12-01T11:23:03.251Z,1.78
2018-12-01T11:25:32.080Z,1.81
2018-12-01T11:28:00.900Z,1.79
2018-12-01T11:30:30.043Z,1.74
2018-12-01T11:32:58.931Z,1.61
2018-12-01T11:35:27.650Z,1.48
2018-12-01T11:37:56.871Z,1.54
2018-12-01T11:40:25.671Z,1.73
2018-12-01T11:42:54.513Z,1.81
2018-12-01T11:45:23.360Z,1.90
2018-12-01T11:47:52.213Z,1.97
2018-12-01T11:50:21.314Z,1.97
2018-12-01T11:52:51.071Z,2.01
2018-12-01T11:55:22.442Z,2.15
2018-12-01T11:57:51.973Z,2.16
2018-12-01T12:00:21.976Z,2.17
2018-12-01T12:02:50.714Z,2.24
2018-12-01T12:05:19.981Z,2.30
2018-12-01T12:07:59.807Z,2.38
2018-12-01T12:10:28.632Z,2.51
2018-12-01T12:12:57.507Z,2.59
2018-12-01T12:15:27.458Z,2.59
2018-12-01T12:17:59.640Z,2.66
2018-12-01T12:20:29.159Z,2.72
2018-12-01T12:22:58.058Z,2.72
2018-12-01T12:25:27.363Z,2.62
2018-12-01T12:27:56.219Z,2.69
2018-12-01T12:30:25.926Z,2.73
2018-12-01T12:32:53.977Z,2.68
2018-12-01T12:35:22.822Z,2.75
2018-12-01T12:37:51.925Z,2.77
2018-12-01T12:40:21.929Z,2.70
2018-12-01T12:42:51.060Z,2.73
2018-12-01T12:45:19.973Z,2.78
2018-12-01T12:47:48.824Z,2.75
2018-12-01T12:50:18.434Z,2.83
2018-12-01T12:52:50.237Z,2.93
2018-12-01T12:55:22.306Z,3.03
2018-12-01T12:57:51.072Z,3.07
2018-12-01T13:00:21.464Z,3.09
2018-12-01T13:02:55.326Z,3.03
2018-12-01T13:05:25.597Z,3.12
2018-12-01T13:07:54.478Z,3.14
2018-12-01T13:10:24.235Z,3.09
2018-12-01T13:12:53.146Z,3.10
2018-12-01T13:15:22.357Z,3.12
2018-12-01T13:17:51.095Z,3.11
2018-12-01T13:20:21.618Z,3.12
2018-12-01T13:22:52.581Z,3.03
2018-12-01T13:25:21.447Z,3.02
2018-12-01T13:27:55.498Z,2.99
2018-12-01T13:30:26.492Z,3.03
2018-12-01T13:32:55.338Z,3.01
2018-12-01T13:35:24.134Z,2.98
2018-12-01T13:37:53.004Z,2.97
2018-12-01T13:40:22.288Z,2.92
2018-12-01T13:42:51.473Z,2.89
2018-12-01T13:45:20.683Z,2.91
2018-12-01T13:47:50.502Z,2.79
2018-12-01T13:50:20.347Z,2.75
2018-12-01T13:52:51.681Z,2.68
2018-12-01T13:55:20.532Z,2.71
2018-12-01T13:57:49.388Z,2.72
2018-12-01T14:00:22.304Z,2.69
2018-12-01T14:02:52.822Z,2.70
2018-12-01T14:05:21.577Z,2.57
2018-12-01T14:07:50.846Z,2.56
2018-12-01T14:10:23.913Z,2.53
2018-12-01T14:12:54.354Z,2.39
2018-12-01T14:15:24.419Z,2.33
2018-12-01T14:17:53.557Z,2.24
2018-12-01T14:20:22.446Z,2.23
2018-12-01T14:22:51.647Z,2.22
2018-12-01T14:25:21.723Z,2.20
2018-12-01T14:27:52.563Z,2.16
2018-12-01T14:30:21.404Z,2.14
2018-12-01T14:32:50.227Z,2.06
2018-12-01T14:35:29.074Z,2.00
2018-12-01T14:38:02.151Z,1.98
2018-12-01T14:40:31.332Z,1.99
2018-12-01T14:42:59.975Z,1.90
2018-12-01T14:45:28.780Z,1.86
2018-12-01T14:47:57.576Z,1.87
2018-12-01T14:50:26.372Z,1.85
2018-12-01T14:52:55.441Z,1.77
2018-12-01T14:55:24.250Z,1.73
2018-12-01T14:57:53.025Z,1.70
2018-12-01T15:00:24.313Z,1.71
2018-12-01T15:02:54.025Z,1.73
2018-12-01T15:05:23.697Z,1.76
2018-12-01T15:07:52.898Z,1.76
2018-12-01T15:10:26.668Z,1.76
2018-12-01T15:12:55.590Z,1.71
2018-12-01T15:15:25.631Z,1.63
2018-12-01T15:17:54.466Z,1.62
2018-12-01T15:20:25.636Z,1.64
2018-12-01T15:22:56.408Z,1.64
2018-12-01T15:25:28.045Z,1.59
2018-12-01T15:27:57.056Z,1.56
2018-12-01T15:30:28.929Z,1.56
2018-12-01T15:33:13.684Z,1.57
2018-12-01T15:35:43.500Z,1.53
2018-12-01T15:38:25.976Z,1.49
2018-12-01T15:40:55.244Z,1.49
2018-12-01T15:43:24.440Z,1.55
2018-12-01T15:45:53.495Z,1.49
2018-12-01T15:48:22.331Z,1.39
2018-12-01T15:50:51.171Z,1.38
2018-12-01T15:53:19.990Z,1.36
2018-12-01T15:55:48.837Z,1.40
2018-12-01T15:58:17.667Z,1.42
2018-12-01T16:00:46.874Z,1.36
2018-12-01T16:03:15.685Z,1.39
2018-12-01T16:05:44.927Z,1.43
2018-12-01T16:08:14.090Z,1.40
2018-12-01T16:10:42.903Z,1.31
2018-12-01T16:13:15.133Z,1.30
2018-12-01T16:15:45.895Z,1.22
2018-12-01T16:18:14.696Z,1.12
2018-12-01T16:20:43.528Z,1.10
2018-12-01T16:23:12.468Z,1.14
2018-12-01T16:25:41.420Z,1.09
2018-12-01T16:28:10.204Z,1.11
2018-12-01T16:30:41.380Z,1.02
2018-12-01T16:33:16.798Z,1.05
2018-12-01T16:35:45.641Z,1.01
2018-12-01T16:38:16.116Z,1.02
2018-12-01T16:41:12.992Z,0.98
2018-12-01T16:43:41.775Z,0.97
2018-12-01T16:46:10.665Z,0.96
2018-12-01T16:48:39.494Z,0.91
2018-12-01T16:51:08.344Z,0.88
2018-12-01T16:53:37.566Z,0.88
2018-12-01T16:56:06.753Z,0.83
2018-12-01T16:58:35.690Z,0.84
2018-12-01T17:01:04.648Z,0.82
2018-12-01T17:03:40.117Z,0.82
2018-12-01T17:06:16.838Z,0.78
2018-12-01T17:08:45.677Z,0.74
2018-12-01T17:11:14.842Z,0.78
2018-12-01T17:13:43.646Z,0.67
2018-12-01T17:16:12.455Z,0.74
2018-12-01T17:18:41.360Z,0.72
2018-12-01T17:21:10.161Z,0.72
2018-12-01T17:23:38.978Z,0.67
2018-12-01T17:26:07.783Z,0.66
2018-12-01T17:28:36.588Z,0.60
2018-12-01T17:31:06.301Z,0.58
2018-12-01T17:33:35.238Z,0.53
2018-12-01T17:36:04.448Z,0.53
2018-12-01T17:38:33.310Z,0.51
2018-12-01T17:41:23.375Z,0.53
2018-12-01T17:43:55.284Z,0.52
2018-12-01T17:46:24.114Z,0.45
2018-12-01T17:48:52.916Z,0.47
2018-12-01T17:51:21.715Z,0.47
2018-12-01T17:53:53.374Z,0.48
2018-12-01T17:56:22.258Z,0.45
2018-12-01T17:58:51.205Z,0.47
2018-12-01T18:01:20.060Z,0.44
2018-12-01T18:03:49.269Z,0.47
2018-12-01T18:06:18.127Z,0.47
2018-12-01T18:08:47.044Z,0.53
2018-12-01T18:11:16.325Z,0.53
2018-12-01T18:13:45.123Z,0.50
2018-12-01T18:16:13.942Z,0.47
2018-12-01T18:18:42.744Z,0.38
2018-12-01T18:21:11.500Z,0.41
2018-12-01T18:23:40.287Z,0.39
2018-12-01T18:26:09.501Z,0.43
2018-12-01T18:28:41.290Z,0.44
2018-12-01T18:31:19.895Z,0.43
2018-12-01T18:33:51.650Z,0.46
2018-12-01T18:36:20.506Z,0.45
2018-12-01T18:38:50.715Z,0.44
2018-12-01T18:41:19.812Z,0.45
2018-12-01T18:43:48.822Z,0.51
2018-12-01T18:46:17.693Z,0.51
2018-12-01T18:48:47.045Z,0.47
2018-12-01T18:51:15.865Z,0.51
2018-12-01T18:53:44.682Z,0.55
2018-12-01T18:56:13.488Z,0.54
2018-12-01T18:58:42.324Z,0.56
2018-12-01T19:01:11.737Z,0.54
2018-12-01T19:03:40.569Z,0.48
2018-12-01T19:06:09.695Z,0.45
2018-12-01T19:08:38.649Z,0.43
2018-12-01T19:11:08.127Z,0.49
2018-12-01T19:13:37.085Z,0.43
2018-12-01T19:16:06.376Z,0.43
2018-12-01T19:18:35.289Z,0.42
2018-12-01T19:21:05.046Z,0.44
2018-12-01T19:23:33.920Z,0.42
2018-12-01T19:26:02.732Z,0.36
2018-12-01T19:28:31.595Z,0.32
2018-12-01T19:31:00.436Z,0.26
2018-12-01T19:33:29.259Z,0.28
2018-12-01T19:35:58.154Z,0.28
2018-12-01T19:38:28.569Z,0.28
2018-12-01T19:40:59.104Z,0.29
2018-12-01T19:43:27.940Z,0.30
2018-12-01T19:45:59.160Z,0.31
2018-12-01T19:48:28.465Z,0.38
2018-12-01T19:50:57.208Z,0.35
2018-12-01T19:53:25.997Z,0.31
2018-12-01T19:55:55.101Z,0.36
2018-12-01T19:58:25.553Z,0.43
2018-12-01T20:00:56.456Z,0.43
2018-12-01T20:03:26.493Z,0.40
2018-12-01T20:05:55.410Z,0.36
2018-12-01T20:08:25.601Z,0.37
2018-12-01T20:10:56.533Z,0.45
2018-12-01T20:13:35.992Z,0.54
2018-12-01T20:16:15.521Z,0.56
2018-12-01T20:18:44.342Z,0.51
2018-12-01T20:21:13.171Z,0.54
2018-12-01T20:23:42.021Z,0.60
2018-12-01T20:26:10.788Z,0.63
2018-12-01T20:28:40.070Z,0.62
2018-12-01T20:31:08.918Z,0.72
2018-12-01T20:33:37.781Z,0.70
2018-12-01T20:36:12.985Z,0.80
2018-12-01T20:38:45.765Z,0.81
2018-12-01T20:41:14.588Z,0.82
2018-12-01T20:43:43.497Z,0.74
2018-12-01T20:46:12.391Z,0.78
2018-12-01T20:48:41.220Z,0.84
2018-12-01T20:51:10.077Z,0.82
2018-12-01T20:53:45.228Z,0.78
2018-12-01T20:56:16.735Z,0.79
2018-12-01T20:58:45.538Z,0.77
2018-12-01T21:01:14.332Z,0.77
2018-12-01T21:03:43.355Z,0.79
2018-12-01T21:06:12.223Z,0.72
2018-12-01T21:08:41.054Z,0.70
2018-12-01T21:11:11.926Z,0.66
2018-12-01T21:13:40.693Z,0.60
2018-12-01T21:16:09.634Z,0.60
2018-12-01T21:18:38.666Z,0.64
2018-12-01T21:21:07.541Z,0.68
2018-12-01T21:23:36.401Z,0.70
2018-12-01T21:26:05.200Z,0.68
2018-12-01T21:28:34.000Z,0.55
2018-12-01T21:31:02.795Z,0.50
2018-12-01T21:33:33.058Z,0.51
2018-12-01T21:36:01.872Z,0.52
2018-12-01T21:38:30.704Z,0.62
2018-12-01T21:40:59.522Z,0.65
2018-12-01T21:43:28.354Z,0.62
2018-12-01T21:45:57.150Z,0.65
2018-12-01T21:48:25.919Z,0.60
2018-12-01T21:50:54.727Z,0.58
2018-12-01T21:53:25.044Z,0.65
2018-12-01T21:55:53.908Z,0.64
2018-12-01T21:58:22.746Z,0.62
2018-12-01T22:01:06.717Z,0.49
2018-12-01T22:03:35.529Z,0.45
2018-12-01T22:06:05.934Z,0.52
2018-12-01T22:08:35.487Z,0.48
2018-12-01T22:11:04.387Z,0.46
2018-12-01T22:13:33.204Z,0.35
2018-12-01T22:16:01.995Z,0.32
2018-12-01T22:18:30.835Z,0.30
2018-12-01T22:20:59.647Z,0.30
2018-12-01T22:23:28.734Z,0.28
2018-12-01T22:25:57.541Z,0.33
2018-12-01T22:28:26.427Z,0.36
2018-12-01T22:30:55.202Z,0.35
2018-12-01T22:33:26.335Z,0.30
2018-12-01T22:35:55.206Z,0.29
2018-12-01T22:38:25.174Z,0.31
2018-12-01T22:40:54.017Z,0.21
2018-12-01T22:43:22.853Z,0.18
2018-12-01T22:45:51.723Z,0.16
2018-12-01T22:48:22.910Z,0.17
2018-12-01T22:50:52.776Z,0.19
2018-12-01T22:53:21.610Z,0.03
2018-12-01T22:55:51.280Z,0.08
2018-12-01T22:58:21.225Z,0.18
2018-12-01T23:00:53.619Z,0.23
2018-12-01T23:03:23.058Z,0.21
2018-12-01T23:05:51.860Z,0.12
2018-12-01T23:08:22.003Z,0.15
2018-12-01T23:10:50.805Z,0.12
2018-12-01T23:13:19.934Z,0.17
2018-12-01T23:15:48.848Z,0.25
2018-12-01T23:18:19.991Z,0.31
2018-12-01T23:20:49.290Z,0.33
2018-12-01T23:23:18.476Z,0.40
2018-12-01T23:25:47.342Z,0.37
2018-12-01T23:28:16.139Z,0.44
2018-12-01T23:30:47.548Z,0.50
2018-12-01T23:33:26.273Z,0.54
2018-12-01T23:35:55.910Z,0.58
2018-12-01T23:38:24.740Z,0.59
2018-12-01T23:40:53.853Z,0.61
2018-12-01T23:43:22.655Z,0.59
2018-12-01T23:45:51.442Z,0.56
2018-12-01T23:48:20.237Z,0.55
2018-12-01T23:50:52.088Z,0.52
2018-12-01T23:53:21.458Z,0.48
2018-12-01T23:55:50.660Z,0.47
2018-12-01T23:58:19.445Z,0.45
